Time;durP1;ratioP1;P1;durP2;ratioP2;P2;SDS_P1;SDS_P2;PMS_P1;PMS_P2;Temp;Humidity;BMP_temperature;BMP_pressure;BME280_temperature;BME280_humidity;BME280_pressure;Samples;Min_cycle;Max_cycle;Signal;HPM_P1;HPM_P2
2022/09/20 13:51:56;;;;;;;3.50;1.90;;;;;;;19.55;37.22;100727.12;104743;1289;601134;-76
2022/09/20 13:54:32;;;;;;;2.80;2.10;;;;;;;20.05;36.81;100728.13;107138;1254;59411;-72
2022/09/20 13:57:18;;;;;;;3.60;1.70;;;;;;;20.19;36.54;100729.68;107220;1253;59425;-75
2022/09/20 13:59:47;;;;;;;3.90;2.00;;;;;;;19.58;36.97;100730.98;107246;1254;61789;-74
2022/09/20 14:02:42;;;;;;;5.10;2.20;;;;;;;18.82;37.95;100734.50;107171;1254;61812;-79
2022/09/20 14:05:18;;;;;;;3.40;2.40;;;;;;;17.97;39.28;100738.80;106919;1253;321448;-73
2022/09/20 14:07:48;;;;;;;4.60;2.60;;;;;;;17.33;40.14;100745.13;107407;1251;71468;-73
2022/09/20 14:10:31;;;;;;;3.80;2.30;;;;;;;17.01;40.74;100738.66;107157;1254;57540;-74
2022/09/20 14:13:05;;;;;;;4.60;2.70;;;;;;;16.79;41.11;100739.99;107375;1251;62005;-72
2022/09/20 14:15:46;;;;;;;3.30;2.30;;;;;;;16.47;41.51;100736.76;107392;1253;69752;-75
2022/09/20 14:18:20;;;;;;;3.40;2.20;;;;;;;16.11;41.99;100739.30;108141;1252;70519;-73
2022/09/20 14:20:49;;;;;;;3.30;2.20;;;;;;;15.85;42.41;100732.14;107622;1251;69468;-73
2022/09/20 14:23:25;;;;;;;3.80;2.20;;;;;;;15.60;43.51;100736.95;107194;1253;74077;-73
2022/09/20 14:26:15;;;;;;;3.90;2.30;;;;;;;15.54;43.92;100740.97;107148;1254;61944;-74
2022/09/20 14:28:44;;;;;;;3.50;2.30;;;;;;;15.53;44.26;100744.17;107339;1251;62181;-71
2022/09/20 14:31:33;;;;;;;4.30;2.40;;;;;;;15.47;44.64;100747.58;107327;1251;71392;-69
2022/09/20 14:34:03;;;;;;;3.20;2.30;;;;;;;15.48;44.50;100746.05;107320;1251;69855;-73
2022/09/20 14:36:32;;;;;;;3.70;2.10;;;;;;;15.83;44.27;100743.73;107250;1252;68686;-74
2022/09/20 14:39:04;;;;;;;5.20;2.40;;;;;;;16.46;43.46;100749.10;107217;1250;72867;-68
2022/09/20 14:41:39;;;;;;;3.30;2.10;;;;;;;17.00;42.40;100747.73;107179;1253;61655;-69
2022/09/20 14:44:32;;;;;;;2.80;2.10;;;;;;;17.12;41.52;100750.08;107258;1251;59244;-73
2022/09/20 14:47:14;;;;;;;2.90;1.80;;;;;;;16.84;41.60;100750.73;107261;1251;70103;-73
2022/09/20 14:49:43;;;;;;;3.10;2.00;;;;;;;16.50;41.70;100749.49;107190;1251;71531;-74
2022/09/20 14:52:27;;;;;;;5.60;2.10;;;;;;;16.55;41.85;100750.72;107103;1251;72029;-73
2022/09/20 14:55:00;;;;;;;2.50;2.10;;;;;;;17.54;41.17;100751.88;107140;1251;74439;-73
2022/09/20 14:57:29;;;;;;;3.00;1.90;;;;;;;18.36;39.43;100748.67;107351;1251;61025;-74
2022/09/20 15:00:03;;;;;;;2.70;2.00;;;;;;;19.02;38.33;100750.36;107091;1253;62096;-73
2022/09/20 15:02:35;;;;;;;3.60;1.80;;;;;;;19.35;38.36;100745.59;107089;1254;62825;-74
2022/09/20 15:05:04;;;;;;;3.00;1.90;;;;;;;18.94;37.31;100748.21;107125;1251;71447;-73
2022/09/20 15:07:36;;;;;;;5.20;2.20;;;;;;;18.35;38.19;100747.88;107219;1253;59539;-78
2022/09/20 15:10:11;;;;;;;3.60;1.90;;;;;;;17.94;39.04;100744.56;107047;1253;65104;-79
2022/09/20 15:12:41;;;;;;;3.70;2.00;;;;;;;18.14;39.16;100746.61;107044;1253;59057;-75
2022/09/20 15:15:16;;;;;;;5.50;1.90;;;;;;;17.88;38.27;100746.48;107074;1251;61405;-78
2022/09/20 15:17:46;;;;;;;3.40;2.20;;;;;;;17.70;39.17;100748.06;107078;1251;73223;-78
2022/09/20 15:20:22;;;;;;;4.00;1.70;;;;;;;17.96;38.63;100750.96;107115;1250;72628;-75
2022/09/20 15:22:52;;;;;;;2.80;1.90;;;;;;;18.44;38.41;100748.71;107074;1251;71051;-74
2022/09/20 15:25:21;;;;;;;4.80;2.40;;;;;;;18.73;38.29;100747.86;106969;1252;74375;-73
2022/09/20 15:27:49;;;;;;;5.00;2.50;;;;;;;18.91;37.74;100751.05;107143;1251;60993;-74
2022/09/20 15:30:21;;;;;;;4.40;2.20;;;;;;;19.13;37.63;100751.48;107164;1248;57456;-76
2022/09/20 15:32:52;;;;;;;4.10;2.10;;;;;;;18.61;37.80;100751.86;107031;1252;62595;-79
2022/09/20 15:35:20;;;;;;;6.10;3.40;;;;;;;18.44;38.44;100755.31;107107;1251;71918;-76
2022/09/20 15:37:49;;;;;;;4.60;2.70;;;;;;;18.53;38.74;100756.83;107069;1251;59393;-75
2022/09/20 15:40:17;;;;;;;4.20;2.50;;;;;;;18.31;39.01;100757.03;107065;1253;73109;-77
2022/09/20 15:42:46;;;;;;;3.90;2.60;;;;;;;18.28;39.42;100759.55;107119;1251;60620;-71
2022/09/20 15:45:15;;;;;;;5.70;3.00;;;;;;;18.66;39.34;100756.31;107147;1251;59773;-73
2022/09/20 15:47:45;;;;;;;6.40;2.70;;;;;;;18.82;39.40;100756.92;107101;1251;72803;-71
2022/09/20 15:50:15;;;;;;;4.00;2.60;;;;;;;18.66;39.39;100757.24;107054;1251;71970;-70
2022/09/20 15:52:43;;;;;;;5.20;3.10;;;;;;;17.99;40.29;100763.12;107171;1250;70449;-77
2022/09/20 15:55:12;;;;;;;8.90;2.80;;;;;;;16.95;42.49;100761.79;106967;1251;64083;-77
2022/09/20 15:57:41;;;;;;;6.20;2.60;;;;;;;16.48;42.83;100763.13;107137;1250;61263;-78
2022/09/20 16:00:10;;;;;;;5.10;2.90;;;;;;;15.97;43.73;100761.58;107112;1251;60566;-75
2022/09/20 16:02:39;;;;;;;7.30;3.20;;;;;;;15.38;44.84;100766.27;107020;1250;72839;-72
2022/09/20 16:05:08;;;;;;;5.30;3.50;;;;;;;14.89;47.89;100769.30;107098;1251;72159;-71
2022/09/20 16:07:37;;;;;;;8.00;3.30;;;;;;;14.39;50.72;100772.87;107160;1250;68780;-75
2022/09/20 16:10:07;;;;;;;6.30;3.60;;;;;;;13.89;53.56;100772.64;107057;1252;73883;-72
2022/09/20 16:12:36;;;;;;;5.00;3.30;;;;;;;13.66;54.45;100777.90;107225;1250;61333;-76
2022/09/20 16:15:06;;;;;;;4.30;2.90;;;;;;;13.43;53.22;100781.07;107173;1251;59749;-73
2022/09/20 16:20:22;;;;;;;6.00;3.80;;;;;;;12.70;55.27;100785.38;107134;1250;71622;-78
2022/09/20 16:22:51;;;;;;;5.60;3.30;;;;;;;12.42;54.91;100789.57;107183;1250;71198;-78
2022/09/20 16:25:19;;;;;;;8.40;3.10;;;;;;;12.11;56.71;100794.98;107177;1251;74306;-75
2022/09/20 16:27:48;;;;;;;10.00;3.90;;;;;;;11.93;56.48;100795.30;107151;1250;59046;-73
2022/09/20 16:30:18;;;;;;;7.80;3.20;;;;;;;11.71;59.26;100802.88;107181;1251;61681;-81
2022/09/20 16:32:47;;;;;;;6.40;3.50;;;;;;;11.64;57.26;100804.45;107171;1253;73354;-79
2022/09/20 16:35:16;;;;;;;7.80;3.40;;;;;;;11.56;58.42;100808.38;107379;1251;70750;-76
2022/09/20 16:37:47;;;;;;;4.90;3.30;;;;;;;11.51;58.48;100803.85;107493;1253;70661;-73
2022/09/20 16:40:15;;;;;;;7.90;3.70;;;;;;;11.46;58.47;100807.05;107265;1253;71446;-69
2022/09/20 16:42:45;;;;;;;11.80;4.10;;;;;;;11.38;63.12;100813.65;107360;1251;59152;-70
2022/09/20 16:45:20;;;;;;;8.80;4.30;;;;;;;11.34;65.29;100818.20;107336;1251;59524;-77
2022/09/20 16:47:49;;;;;;;14.20;6.50;;;;;;;11.21;66.61;100809.73;107255;1251;73518;-73
2022/09/20 16:50:18;;;;;;;12.00;5.40;;;;;;;11.19;67.89;100826.81;107286;1251;73654;-70
2022/09/20 16:52:47;;;;;;;12.40;5.60;;;;;;;11.08;68.41;100829.02;107199;1250;70093;-78
2022/09/20 16:55:16;;;;;;;18.20;6.80;;;;;;;11.08;66.85;100831.63;107298;1250;72666;-82
2022/09/20 16:57:51;;;;;;;17.00;5.90;;;;;;;10.99;66.82;100829.09;107249;1253;59061;-80
2022/09/20 17:00:20;;;;;;;9.30;4.90;;;;;;;10.87;68.49;100825.60;106995;1253;58989;-75
2022/09/20 17:02:50;;;;;;;12.90;5.60;;;;;;;10.78;70.88;100829.93;107026;1251;70955;-76
2022/09/20 17:05:18;;;;;;;7.10;4.10;;;;;;;10.76;68.20;100830.80;107263;1251;72249;-74
2022/09/20 17:07:47;;;;;;;8.60;5.00;;;;;;;10.72;70.70;100838.58;107151;1253;71232;-73
2022/09/20 17:10:23;;;;;;;7.50;4.60;;;;;;;10.66;72.01;100840.18;107176;1253;71209;-74
2022/09/20 17:12:56;;;;;;;11.60;5.70;;;;;;;10.56;74.26;100842.82;107430;1251;60696;-74
2022/09/20 17:15:24;;;;;;;;;;;;;;;10.46;76.29;100841.23;107244;1251;61748;-73
2022/09/20 17:17:53;;;;;;;13.10;6.20;;;;;;;10.38;77.27;100843.75;107289;1251;70815;-76
2022/09/20 17:20:25;;;;;;;10.70;6.40;;;;;;;10.33;78.52;100848.91;107276;1250;70342;-74
2022/09/20 17:22:55;;;;;;;10.70;5.80;;;;;;;10.26;79.61;100845.95;107326;1251;68734;-75
2022/09/20 17:25:27;;;;;;;8.10;5.50;;;;;;;10.17;80.83;100852.27;107181;1253;71170;-72
2022/09/20 17:27:55;;;;;;;21.60;11.50;;;;;;;10.14;79.60;100855.63;107294;1251;63425;-74
2022/09/20 17:30:28;;;;;;;7.90;5.70;;;;;;;10.07;80.15;100852.94;107223;1253;60160;-74
2022/09/20 17:32:56;;;;;;;11.60;6.20;;;;;;;10.06;80.90;100861.52;107216;1253;73207;-74
2022/09/20 17:35:27;;;;;;;10.10;6.60;;;;;;;9.99;80.83;100862.35;107388;1250;73251;-77
2022/09/20 17:37:55;;;;;;;14.30;7.70;;;;;;;10.00;80.66;100868.20;107404;1250;69692;-75
2022/09/20 17:40:24;;;;;;;34.50;15.40;;;;;;;9.98;79.77;100869.93;107102;1254;73075;-72
2022/09/20 17:43:02;;;;;;;19.30;9.80;;;;;;;9.96;79.97;100875.08;107071;1253;61175;-73
2022/09/20 17:45:32;;;;;;;14.50;7.80;;;;;;;9.91;81.45;100876.29;106996;1253;61318;-74
2022/09/20 17:48:02;;;;;;;17.50;8.60;;;;;;;9.89;82.32;100878.55;106938;1253;73480;-76
2022/09/20 17:50:30;;;;;;;16.70;9.30;;;;;;;9.88;82.69;100876.14;107075;1253;71399;-75
2022/09/20 17:53:00;;;;;;;21.50;9.80;;;;;;;9.88;83.03;100877.38;107296;1253;68070;-72
2022/09/20 17:55:28;;;;;;;23.40;10.00;;;;;;;9.89;81.40;100880.48;107118;1250;73088;-71
2022/09/20 17:57:57;;;;;;;22.00;10.60;;;;;;;9.85;82.08;100883.98;107129;1250;59649;-76
2022/09/20 18:00:29;;;;;;;25.10;11.30;;;;;;;9.79;81.56;100886.15;107112;1251;60619;-79
2022/09/20 18:02:58;;;;;;;23.70;10.50;;;;;;;9.73;81.60;100892.41;107171;1250;71432;-75
2022/09/20 18:05:32;;;;;;;24.70;11.10;;;;;;;9.72;82.68;100890.60;107020;1253;71194;-76
2022/09/20 18:08:02;;;;;;;21.70;11.20;;;;;;;9.72;83.02;100894.23;107183;1253;69870;-74
2022/09/20 18:10:31;;;;;;;24.10;12.20;;;;;;;9.74;83.05;100899.66;107132;1253;73734;-75
2022/09/20 18:13:00;;;;;;;21.10;11.80;;;;;;;9.75;83.36;100899.60;107070;1253;61929;-76
2022/09/20 18:15:30;;;;;;;18.50;10.20;;;;;;;9.77;81.68;100901.56;107082;1253;62061;-76
2022/09/20 18:18:02;;;;;;;14.60;7.60;;;;;;;9.78;83.23;100903.97;107054;1253;72787;-75
2022/09/20 18:20:34;;;;;;;13.00;7.90;;;;;;;9.86;82.50;100907.30;107016;1253;72711;-74
2022/09/20 18:23:04;;;;;;;13.00;7.70;;;;;;;9.93;82.50;100909.59;106995;1253;70990;-78
2022/09/20 18:26:20;;;;;;;12.70;7.10;;;;;;;9.98;81.21;100910.48;107261;1253;75424;-77
2022/09/20 18:28:22;;;;;;;11.50;7.00;;;;;;;10.02;82.53;100913.44;107239;1252;60305;-79
2022/09/20 18:31:04;;;;;;;13.20;7.30;;;;;;;10.07;82.97;100913.46;107233;1253;61275;-72
2022/09/20 18:33:32;;;;;;;11.70;7.20;;;;;;;10.14;83.17;100917.75;107012;1253;75143;-80
2022/09/20 18:36:04;;;;;;;7.20;5.50;;;;;;;10.17;82.91;100916.16;107007;1253;71261;-75
2022/09/20 18:38:32;;;;;;;11.10;6.10;;;;;;;10.17;82.21;100920.66;107107;1252;70913;-82
2022/09/20 18:41:02;;;;;;;11.50;6.00;;;;;;;10.19;82.57;100919.64;107082;1250;74570;-77
2022/09/20 18:43:34;;;;;;;10.10;5.90;;;;;;;10.22;83.15;100919.64;107018;1253;61240;-76
2022/09/20 18:46:03;;;;;;;11.40;6.00;;;;;;;10.28;82.53;100924.45;107085;1253;60014;-83
2022/09/20 18:48:32;;;;;;;12.30;6.50;;;;;;;10.32;80.94;100925.04;107004;1253;73257;-80
2022/09/20 18:51:03;;;;;;;13.80;7.50;;;;;;;10.37;81.15;100920.89;107028;1253;71573;-74
2022/09/20 18:53:36;;;;;;;13.10;7.50;;;;;;;10.41;80.77;100925.37;106939;1253;69113;-83
2022/09/20 18:56:27;;;;;;;12.90;6.60;;;;;;;10.41;81.18;100924.84;106915;1251;73772;-76
2022/09/20 18:59:00;;;;;;;18.20;7.30;;;;;;;10.38;82.83;100928.89;107133;1253;63377;-78
2022/09/20 19:01:53;;;;;;;10.60;5.70;;;;;;;10.40;81.69;100929.92;106826;1253;62196;-79
2022/09/20 19:05:02;;;;;;;11.10;5.90;;;;;;;10.43;79.41;100927.81;106997;1253;74091;-77
2022/09/20 19:07:52;;;;;;;6.70;4.50;;;;;;;10.43;78.53;100925.41;107115;1252;72483;-74
2022/09/20 19:10:37;;;;;;;9.20;4.70;;;;;;;10.39;77.80;100921.98;106880;1253;69544;-72
2022/09/20 19:13:50;;;;;;;8.20;5.50;;;;;;;10.32;78.02;100925.20;106970;1253;72031;-73
2022/09/20 19:16:32;;;;;;;9.70;4.30;;;;;;;10.31;77.86;100921.63;106986;1253;60819;-73
2022/09/20 19:19:36;;;;;;;9.30;4.80;;;;;;;10.32;78.30;100929.23;107066;1253;61323;-72
2022/09/20 19:22:49;;;;;;;7.70;4.60;;;;;;;10.29;78.84;100935.16;107055;1252;74108;-71
2022/09/20 19:25:44;;;;;;;6.60;4.40;;;;;;;10.29;77.98;100936.61;106922;1251;70400;-74
2022/09/20 19:28:14;;;;;;;10.00;4.40;;;;;;;10.24;78.01;100936.04;106991;1253;68772;-73
2022/09/20 19:30:44;;;;;;;6.90;4.30;;;;;;;10.22;76.91;100936.02;106975;1253;71243;-66
2022/09/20 19:33:18;;;;;;;7.40;4.00;;;;;;;10.16;76.96;100934.64;106894;1251;62879;-74
2022/09/20 19:35:50;;;;;;;6.00;3.60;;;;;;;10.20;77.44;100943.98;107073;1253;61636;-71
2022/09/20 19:38:55;;;;;;;6.60;4.50;;;;;;;10.17;78.00;100943.29;107158;1252;74516;-76
2022/09/20 19:41:37;;;;;;;5.30;3.60;;;;;;;10.15;77.37;100944.29;107084;1253;71000;-75
2022/09/20 19:44:53;;;;;;;6.40;4.30;;;;;;;10.11;76.79;100951.17;107033;1253;72357;-74
2022/09/20 19:47:44;;;;;;;8.60;4.40;;;;;;;10.07;77.04;100947.28;107177;1253;74293;-74
2022/09/20 19:50:45;;;;;;;7.70;3.80;;;;;;;10.05;78.21;100951.23;107146;1250;61151;-74
2022/09/20 19:53:26;;;;;;;9.30;4.50;;;;;;;10.06;79.34;100952.16;107129;1251;59809;-74
2022/09/20 19:56:13;;;;;;;7.10;4.80;;;;;;;10.10;80.87;100952.64;107088;1251;70860;-71
2022/09/20 19:58:44;;;;;;;9.70;5.20;;;;;;;10.13;81.50;100954.04;107192;1251;72240;-75
2022/09/20 20:01:13;;;;;;;7.80;4.80;;;;;;;10.13;82.01;100955.56;107244;1250;70101;-73
2022/09/20 20:03:42;;;;;;;6.60;4.30;;;;;;;10.12;79.74;100959.29;107163;1251;74472;-77
2022/09/20 20:06:33;;;;;;;6.00;4.00;;;;;;;10.09;78.81;100959.15;107226;1250;63366;-73
2022/09/20 20:09:04;;;;;;;7.10;4.40;;;;;;;10.04;78.54;100958.39;107259;1250;59364;-73
2022/09/20 20:12:00;;;;;;;6.60;4.10;;;;;;;10.01;78.70;100958.83;107220;1252;70193;-73
2022/09/20 20:15:15;;;;;;;6.90;4.40;;;;;;;9.93;78.57;100957.73;107293;1249;72286;-74
2022/09/20 20:17:54;;;;;;;4.80;3.50;;;;;;;9.85;78.08;100961.74;107345;1251;69306;-78
2022/09/20 20:20:38;;;;;;;6.80;3.80;;;;;;;9.74;78.67;100963.16;106891;1251;74497;-76
2022/09/20 20:23:29;;;;;;;5.40;3.40;;;;;;;9.64;78.31;100959.84;107111;1250;62000;-77
2022/09/20 20:26:22;;;;;;;5.20;3.20;;;;;;;9.53;79.36;100965.05;107032;1253;58940;-74
2022/09/20 20:28:51;;;;;;;5.00;2.80;;;;;;;9.42;80.20;100966.42;106981;1253;70955;-71
2022/09/20 20:31:21;;;;;;;7.90;3.80;;;;;;;9.40;83.09;100971.27;107135;1250;69611;-79
2022/09/20 20:33:50;;;;;;;5.50;4.10;;;;;;;9.37;85.75;100969.41;107196;1250;69606;-75
2022/09/20 20:36:19;;;;;;;5.90;3.70;;;;;;;9.31;86.43;100973.92;107182;1250;73164;-76
2022/09/20 20:38:51;;;;;;;5.30;2.80;;;;;;;9.25;86.57;100975.84;107013;1251;63347;-73
2022/09/20 20:41:20;;;;;;;4.10;3.10;;;;;;;9.19;83.24;100973.47;107213;1251;59865;-71
2022/09/20 20:43:55;;;;;;;3.90;2.60;;;;;;;9.12;82.38;100971.98;109474;1249;72501;-72
2022/09/20 20:46:24;;;;;;;6.80;3.90;;;;;;;9.06;83.69;100974.61;109451;1249;70874;-72
2022/09/20 20:48:53;;;;;;;5.00;3.00;;;;;;;8.97;85.07;100974.80;107950;1250;70260;-73
2022/09/20 20:51:22;;;;;;;4.50;2.80;;;;;;;8.93;87.00;100979.06;107266;1250;73994;-72
2022/09/20 20:53:53;;;;;;;5.80;3.00;;;;;;;8.93;86.85;100979.95;106871;1250;62573;-72
2022/09/20 20:56:26;;;;;;;4.80;2.40;;;;;;;8.91;86.99;100974.87;109248;1250;59571;-72
2022/09/20 20:59:00;;;;;;;4.50;2.90;;;;;;;8.90;87.14;100977.15;107358;1250;74196;-72
2022/09/20 21:01:35;;;;;;;4.80;3.30;;;;;;;8.85;88.12;100974.34;107080;1250;71934;-72
2022/09/20 21:04:06;;;;;;;4.00;3.20;;;;;;;8.78;88.90;100977.05;107268;1250;68354;-71
2022/09/20 21:06:39;;;;;;;4.10;2.70;;;;;;;8.71;89.22;100975.67;107273;1250;71968;-72
2022/09/20 21:09:10;;;;;;;4.80;2.90;;;;;;;8.67;89.43;100975.09;107287;1251;63054;-70
2022/09/20 21:11:45;;;;;;;6.80;3.10;;;;;;;8.62;89.13;100976.59;107391;1250;62371;-73
2022/09/20 21:14:14;;;;;;;6.40;3.10;;;;;;;8.55;89.12;100972.00;107326;1250;75125;-69
2022/09/20 21:16:44;;;;;;;6.20;3.50;;;;;;;8.50;89.78;100972.31;107364;1250;69914;-70
2022/09/20 21:19:14;;;;;;;7.80;3.00;;;;;;;8.45;89.24;100974.48;107345;1250;69732;-72
2022/09/20 21:21:46;;;;;;;5.40;3.30;;;;;;;8.41;88.85;100972.47;107334;1250;71000;-70
2022/09/20 21:24:18;;;;;;;6.30;3.00;;;;;;;8.37;88.71;100977.38;107306;1250;62124;-69
2022/09/20 21:26:47;;;;;;;4.70;2.70;;;;;;;8.33;87.03;100986.23;107288;1250;62254;-70
2022/09/20 21:29:16;;;;;;;6.30;3.50;;;;;;;8.33;90.62;100986.26;107368;1250;74416;-70
2022/09/20 21:31:45;;;;;;;6.30;3.00;;;;;;;8.28;90.34;100986.38;107208;1250;72652;-70
2022/09/20 21:34:15;;;;;;;6.80;3.50;;;;;;;8.26;88.39;100980.45;107308;1250;69258;-69
2022/09/20 21:36:44;;;;;;;7.70;3.30;;;;;;;8.22;87.00;100980.47;107244;1250;73966;-72
2022/09/20 21:39:13;;;;;;;7.80;3.60;;;;;;;8.20;87.73;100983.01;107320;1250;61505;-68
2022/09/20 21:41:41;;;;;;;6.80;3.40;;;;;;;8.20;88.35;100985.95;107151;1250;61105;-70
2022/09/20 21:44:10;;;;;;;7.80;3.30;;;;;;;8.21;88.16;100987.12;107149;1250;71113;-68
2022/09/20 21:46:40;;;;;;;9.40;4.30;;;;;;;8.21;89.13;100984.89;107154;1250;71440;-71
2022/09/20 21:49:11;;;;;;;6.10;2.80;;;;;;;8.22;87.85;100986.90;107131;1250;68281;-68
2022/09/20 21:51:41;;;;;;;5.30;3.00;;;;;;;8.23;87.63;100982.88;107254;1250;74514;-72
2022/09/20 21:54:10;;;;;;;6.10;3.30;;;;;;;8.22;86.72;100982.39;107237;1249;61714;-69
2022/09/20 21:56:40;;;;;;;5.20;3.00;;;;;;;8.22;86.17;100978.23;107148;1250;60613;-69
2022/09/20 21:59:08;;;;;;;4.30;2.40;;;;;;;8.23;86.20;100980.58;107187;1250;75307;-72
2022/09/20 22:01:39;;;;;;;4.30;2.60;;;;;;;8.22;86.28;100974.43;107154;1250;71597;-70
2022/09/20 22:04:11;;;;;;;3.80;2.50;;;;;;;8.20;86.94;100976.95;107333;1250;71635;-69
2022/09/20 22:06:44;;;;;;;4.80;2.80;;;;;;;8.17;86.76;100974.20;107175;1250;74246;-70
2022/09/20 22:09:16;;;;;;;3.80;2.30;;;;;;;8.13;86.06;100979.08;107155;1249;61069;-70
2022/09/20 22:11:47;;;;;;;4.20;2.80;;;;;;;8.10;86.48;100981.00;107189;1250;60689;-66
2022/09/20 22:14:19;;;;;;;3.70;2.80;;;;;;;8.10;86.82;100983.42;107212;1250;72716;-70
2022/09/20 22:16:50;;;;;;;4.00;2.40;;;;;;;8.12;88.44;100991.31;107261;1249;71684;-70
2022/09/20 22:19:19;;;;;;;5.50;3.00;;;;;;;8.11;87.85;100989.96;107227;1250;72081;-68
2022/09/20 22:21:50;;;;;;;3.80;2.50;;;;;;;8.12;90.44;100991.46;107133;1251;73613;-70
2022/09/20 22:24:18;;;;;;;4.80;2.70;;;;;;;8.13;91.39;100995.20;107223;1250;61973;-71
2022/09/20 22:26:50;;;;;;;6.00;3.20;;;;;;;8.17;91.70;100994.46;107208;1250;59625;-70
2022/09/20 22:29:19;;;;;;;9.40;3.10;;;;;;;8.19;91.51;100993.83;107245;1250;71175;-69
2022/09/20 22:31:49;;;;;;;5.00;2.60;;;;;;;8.21;91.25;100993.19;107250;1250;70189;-70
2022/09/20 22:34:23;;;;;;;7.50;3.30;;;;;;;8.24;91.81;100992.85;107251;1250;70024;-68
2022/09/20 22:36:52;;;;;;;5.80;3.40;;;;;;;8.23;90.18;100992.20;107331;1250;72469;-71
2022/09/20 22:39:21;;;;;;;4.70;2.70;;;;;;;8.22;91.57;100990.18;107311;1250;59212;-69
2022/09/20 22:41:51;;;;;;;4.00;2.60;;;;;;;8.24;92.01;100986.27;107276;1250;60651;-71
2022/09/20 22:44:19;;;;;;;3.40;2.30;;;;;;;8.23;92.02;100984.58;107197;1250;71817;-68
2022/09/20 22:46:49;;;;;;;3.60;2.20;;;;;;;8.20;91.67;100981.14;107205;1250;72439;-70
2022/09/20 22:49:18;;;;;;;2.80;2.10;;;;;;;8.17;91.30;100986.00;107272;1250;67865;-70
2022/09/20 22:51:46;;;;;;;3.00;2.10;;;;;;;8.09;90.83;100983.33;107200;1250;73831;-70
2022/09/20 22:54:15;;;;;;;4.20;2.60;;;;;;;8.01;90.64;100984.45;107123;1252;60747;-72
2022/09/20 22:56:44;;;;;;;5.10;2.60;;;;;;;7.95;92.53;100978.23;107245;1250;59048;-72
2022/09/20 22:59:14;;;;;;;4.50;2.50;;;;;;;7.93;93.24;100983.39;107281;1250;74085;-71
2022/09/20 23:01:46;;;;;;;3.20;2.20;;;;;;;7.90;93.28;100988.42;107240;1250;70184;-74
2022/09/20 23:04:18;;;;;;;3.10;2.50;;;;;;;7.86;93.78;100983.94;107296;1250;70381;-73
2022/09/20 23:06:53;;;;;;;4.70;2.40;;;;;;;7.81;94.28;100989.09;107239;1250;73811;-68
2022/09/20 23:09:26;;;;;;;4.40;3.10;;;;;;;7.73;94.46;100988.13;107174;1250;62649;-71
2022/09/20 23:11:55;;;;;;;4.30;3.20;;;;;;;7.71;94.62;100990.16;107219;1250;59575;-69
2022/09/20 23:14:24;;;;;;;6.00;3.10;;;;;;;7.72;94.99;100989.92;107192;1250;73237;-70
2022/09/20 23:16:52;;;;;;;5.40;2.50;;;;;;;7.69;94.78;100990.59;107199;1251;70298;-71
2022/09/20 23:19:21;;;;;;;4.40;2.40;;;;;;;7.64;94.57;100992.27;107029;1253;69059;-71
2022/09/20 23:21:50;;;;;;;7.20;2.60;;;;;;;7.61;94.84;100993.31;107026;1253;72946;-70
2022/09/20 23:24:19;;;;;;;4.40;2.70;;;;;;;7.57;95.21;100992.15;107063;1250;62129;-71
2022/09/20 23:26:47;;;;;;;3.30;2.20;;;;;;;7.51;93.40;100995.60;107236;1250;62184;-71
2022/09/20 23:29:16;;;;;;;3.50;2.20;;;;;;;7.39;94.47;100988.48;107065;1251;71940;-70
2022/09/20 23:31:46;;;;;;;5.30;2.20;;;;;;;7.39;95.65;100995.92;107277;1250;72415;-72
2022/09/20 23:34:16;;;;;;;5.00;2.70;;;;;;;7.36;95.58;100995.23;107255;1250;67485;-70
2022/09/20 23:36:45;;;;;;;7.30;4.20;;;;;;;7.32;95.66;100995.26;107100;1250;70189;-70
2022/09/20 23:39:14;;;;;;;5.00;2.80;;;;;;;7.31;96.07;100995.15;106998;1251;60575;-70
2022/09/20 23:41:43;;;;;;;3.90;2.00;;;;;;;7.31;96.12;100994.81;107175;1251;58900;-69
2022/09/20 23:44:19;;;;;;;3.90;2.10;;;;;;;7.30;93.86;100988.98;107079;1250;72052;-71
2022/09/20 23:46:48;;;;;;;4.40;2.20;;;;;;;7.28;94.03;100988.56;106992;1251;71233;-70
2022/09/20 23:49:16;;;;;;;5.10;2.10;;;;;;;7.27;94.84;100984.31;107129;1250;70978;-71
2022/09/20 23:51:45;;;;;;;4.90;2.70;;;;;;;7.29;96.23;100984.15;107059;1250;72109;-70
2022/09/20 23:54:14;;;;;;;3.60;2.30;;;;;;;7.33;96.19;100982.89;106966;1251;62204;-71
2022/09/20 23:56:43;;;;;;;3.60;2.30;;;;;;;7.38;96.00;100982.45;107059;1250;61225;-69
2022/09/20 23:59:11;;;;;;;4.40;2.80;;;;;;;7.40;95.91;100984.24;106848;1250;73931;-69
